createdAt,value
2023-04-08T00:00:20.572Z,17.17
2023-04-08T00:02:47.137Z,17.30
2023-04-08T00:05:13.429Z,17.90
2023-04-08T00:07:39.590Z,18.10
2023-04-08T00:10:08.157Z,16.83
2023-04-08T00:12:34.427Z,18.17
2023-04-08T00:15:00.702Z,18.03
2023-04-08T00:17:26.837Z,19.03
2023-04-08T00:19:54.553Z,19.23
2023-04-08T00:22:21.370Z,18.43
2023-04-08T00:24:47.601Z,18.17
2023-04-08T00:27:14.767Z,19.30
2023-04-08T00:29:41.005Z,19.37
2023-04-08T00:32:07.161Z,19.27
2023-04-08T00:34:33.310Z,20.10
2023-04-08T00:37:00.448Z,19.47
2023-04-08T00:39:26.711Z,20.20
2023-04-08T00:41:52.863Z,18.43
2023-04-08T00:44:19.871Z,18.83
2023-04-08T00:46:46.667Z,18.90
2023-04-08T00:49:12.834Z,20.17
2023-04-08T00:51:39.233Z,18.83
2023-04-08T00:54:05.534Z,18.60
2023-04-08T00:56:32.460Z,18.60
2023-04-08T00:58:59.018Z,19.07
2023-04-08T01:01:30.314Z,18.23
2023-04-08T01:04:00.582Z,17.33
2023-04-08T01:06:32.342Z,17.37
2023-04-08T01:08:59.988Z,17.60
2023-04-08T01:11:27.546Z,17.37
2023-04-08T01:13:54.824Z,17.10
2023-04-08T01:16:21.994Z,17.57
2023-04-08T01:18:50.949Z,18.17
2023-04-08T01:21:18.283Z,18.77
2023-04-08T01:23:55.084Z,18.60
2023-04-08T01:26:24.854Z,18.23
2023-04-08T01:28:52.192Z,19.17
2023-04-08T01:31:19.028Z,19.30
2023-04-08T01:33:46.387Z,18.83
2023-04-08T01:36:12.688Z,21.30
2023-04-08T01:38:39.266Z,20.93
2023-04-08T01:41:06.240Z,21.90
2023-04-08T01:43:34.375Z,25.07
2023-04-08T01:46:01.322Z,25.63
2023-04-08T01:48:28.149Z,26.73
2023-04-08T01:50:55.535Z,26.47
2023-04-08T01:53:22.024Z,29.30
2023-04-08T01:55:50.830Z,25.77
2023-04-08T01:58:20.077Z,26.80
2023-04-08T02:00:47.251Z,28.17
2023-04-08T02:03:14.890Z,29.27
2023-04-08T02:05:41.369Z,29.23
2023-04-08T02:08:07.589Z,29.97
2023-04-08T02:10:33.720Z,30.57
2023-04-08T02:13:00.786Z,30.07
2023-04-08T02:15:28.877Z,31.87
2023-04-08T02:18:03.020Z,29.27
2023-04-08T02:20:34.774Z,29.70
2023-04-08T02:23:05.657Z,29.17
2023-04-08T02:25:35.593Z,30.40
2023-04-08T02:28:03.084Z,30.13
2023-04-08T02:30:30.276Z,30.00
2023-04-08T02:32:58.052Z,30.93
2023-04-08T02:35:24.513Z,30.90
2023-04-08T02:37:50.909Z,28.87
2023-04-08T02:40:27.518Z,28.23
2023-04-08T02:42:53.842Z,31.07
2023-04-08T02:45:20.520Z,31.80
2023-04-08T02:47:46.865Z,31.30
2023-04-08T02:50:13.685Z,30.27
2023-04-08T02:52:40.058Z,31.13
2023-04-08T02:55:09.178Z,31.07
2023-04-08T02:57:36.013Z,30.30
2023-04-08T03:00:03.677Z,31.13
2023-04-08T03:02:30.064Z,30.40
2023-04-08T03:04:57.358Z,30.77
2023-04-08T03:07:24.732Z,31.13
2023-04-08T03:09:50.965Z,29.03
2023-04-08T03:12:17.189Z,31.03
2023-04-08T03:14:43.431Z,31.53
2023-04-08T03:17:09.691Z,31.77
2023-04-08T03:19:35.925Z,32.63
2023-04-08T03:22:02.179Z,32.33
2023-04-08T03:24:29.001Z,30.97
2023-04-08T03:26:55.170Z,31.77
2023-04-08T03:29:21.408Z,32.27
2023-04-08T03:31:47.841Z,31.87
2023-04-08T03:34:14.093Z,32.20
2023-04-08T03:36:40.297Z,33.13
2023-04-08T03:39:06.548Z,31.63
2023-04-08T03:41:33.370Z,31.00
2023-04-08T03:43:59.498Z,30.73
2023-04-08T03:46:25.811Z,30.90
2023-04-08T03:48:52.306Z,30.00
2023-04-08T03:51:18.823Z,29.80
2023-04-08T03:53:45.001Z,27.83
2023-04-08T03:56:11.981Z,29.73
2023-04-08T03:58:38.816Z,28.80
2023-04-08T04:01:05.193Z,29.93
2023-04-08T04:03:31.566Z,28.53
2023-04-08T04:05:57.826Z,27.57
2023-04-08T04:08:24.090Z,27.83
2023-04-08T04:10:50.766Z,27.37
2023-04-08T04:13:18.781Z,27.00
2023-04-08T04:15:45.686Z,26.03
2023-04-08T04:18:12.068Z,25.10
2023-04-08T04:20:39.709Z,25.93
2023-04-08T04:23:05.908Z,26.57
2023-04-08T04:25:32.095Z,26.33
2023-04-08T04:27:58.349Z,24.73
2023-04-08T04:30:25.216Z,25.63
2023-04-08T04:32:52.131Z,26.53
2023-04-08T04:35:18.445Z,25.67
2023-04-08T04:37:44.833Z,25.93
2023-04-08T04:40:11.377Z,27.80
2023-04-08T04:42:37.558Z,23.67
2023-04-08T04:45:04.471Z,23.83
2023-04-08T04:47:31.886Z,26.03
2023-04-08T04:49:58.863Z,24.70
2023-04-08T04:52:25.215Z,25.73
2023-04-08T04:54:51.496Z,25.30
2023-04-08T04:57:17.714Z,27.47
2023-04-08T04:59:43.888Z,26.40
2023-04-08T05:02:10.184Z,25.87
2023-04-08T05:04:36.554Z,26.93
2023-04-08T05:07:03.377Z,28.10
2023-04-08T05:09:29.724Z,27.50
2023-04-08T05:11:56.122Z,26.53
2023-04-08T05:14:22.490Z,25.53
2023-04-08T05:16:48.729Z,25.63
2023-04-08T05:19:14.980Z,27.40
2023-04-08T05:21:41.211Z,25.50
2023-04-08T05:24:08.104Z,24.30
2023-04-08T05:26:34.289Z,24.67
2023-04-08T05:29:00.521Z,23.73
2023-04-08T05:31:27.299Z,26.40
2023-04-08T05:33:53.523Z,21.40
2023-04-08T05:36:19.853Z,23.47
2023-04-08T05:38:46.066Z,24.60
2023-04-08T05:41:12.836Z,26.73
2023-04-08T05:43:39.045Z,26.30
2023-04-08T05:46:08.668Z,26.50
2023-04-08T05:48:35.402Z,25.10
2023-04-08T05:51:01.820Z,26.70
2023-04-08T05:53:28.158Z,26.57
2023-04-08T05:55:54.335Z,28.03
2023-04-08T05:58:21.171Z,27.67
2023-04-08T06:00:47.398Z,26.70
2023-04-08T06:03:13.873Z,26.77
2023-04-08T06:05:40.343Z,26.17
2023-04-08T06:08:06.548Z,26.93
2023-04-08T06:10:32.805Z,28.77
2023-04-08T06:12:59.177Z,27.43
2023-04-08T06:15:27.401Z,27.60
2023-04-08T06:17:53.644Z,27.30
2023-04-08T06:20:20.089Z,29.07
2023-04-08T06:22:46.264Z,29.77
2023-04-08T06:25:12.502Z,29.80
2023-04-08T06:27:38.674Z,30.03
2023-04-08T06:30:06.245Z,29.80
2023-04-08T06:32:33.111Z,31.10
2023-04-08T06:35:01.368Z,32.07
2023-04-08T06:37:27.677Z,30.57
2023-04-08T06:39:53.837Z,31.10
2023-04-08T06:42:21.977Z,30.53
2023-04-08T06:44:49.172Z,30.33
2023-04-08T06:47:16.550Z,30.70
2023-04-08T06:49:43.376Z,30.23
2023-04-08T06:52:09.588Z,28.07
2023-04-08T06:54:35.750Z,30.57
2023-04-08T06:57:01.957Z,30.00
2023-04-08T06:59:28.132Z,31.03
2023-04-08T07:01:54.613Z,30.17
2023-04-08T07:04:21.081Z,30.67
2023-04-08T07:06:47.971Z,29.77
2023-04-08T07:09:14.186Z,30.23
2023-04-08T07:11:40.425Z,30.47
2023-04-08T07:14:06.605Z,33.23
2023-04-08T07:16:32.908Z,31.67
2023-04-08T07:18:59.109Z,33.07
2023-04-08T07:21:25.409Z,31.40
2023-04-08T07:23:52.276Z,35.07
2023-04-08T07:26:18.535Z,36.23
2023-04-08T07:28:44.755Z,40.17
2023-04-08T07:31:12.649Z,39.13
2023-04-08T07:33:38.859Z,39.10
2023-04-08T07:36:05.826Z,40.47
2023-04-08T07:38:32.146Z,40.00
2023-04-08T07:40:58.946Z,42.57
2023-04-08T07:43:25.110Z,42.30
2023-04-08T07:45:51.351Z,43.37
2023-04-08T07:48:17.616Z,41.53
2023-04-08T07:51:08.622Z,41.33
2023-04-08T07:53:31.495Z,44.60
2023-04-08T07:55:57.815Z,47.17
2023-04-08T07:58:25.040Z,45.90
2023-04-08T08:00:51.711Z,45.23
2023-04-08T08:03:18.267Z,44.33
2023-04-08T08:05:44.717Z,44.03
2023-04-08T08:08:11.126Z,45.37
2023-04-08T08:10:37.395Z,44.93
2023-04-08T08:13:03.798Z,46.17
2023-04-08T08:15:30.654Z,45.03
2023-04-08T08:17:56.918Z,48.17
2023-04-08T08:20:23.227Z,45.63
2023-04-08T08:22:57.314Z,46.70
2023-04-08T08:25:25.469Z,47.47
2023-04-08T08:27:52.554Z,44.90
2023-04-08T08:30:20.392Z,45.20
2023-04-08T08:32:47.758Z,43.17
2023-04-08T08:35:14.030Z,43.60
2023-04-08T08:37:40.186Z,43.40
2023-04-08T08:40:07.322Z,42.60
2023-04-08T08:42:34.451Z,43.93
2023-04-08T08:45:01.876Z,43.87
2023-04-08T08:47:28.109Z,42.87
2023-04-08T08:49:55.433Z,44.17
2023-04-08T08:52:21.670Z,44.07
2023-04-08T08:54:48.083Z,41.43
2023-04-08T08:57:18.403Z,42.37
2023-04-08T08:59:45.738Z,43.10
2023-04-08T09:02:24.602Z,42.53
2023-04-08T09:04:57.863Z,41.77
2023-04-08T09:07:25.187Z,41.27
2023-04-08T09:09:51.900Z,42.47
2023-04-08T09:12:18.516Z,44.30
2023-04-08T09:14:44.730Z,40.97
2023-04-08T09:17:10.910Z,41.70
2023-04-08T09:19:37.312Z,41.03
2023-04-08T09:22:07.965Z,41.37
2023-04-08T09:24:34.951Z,41.13
2023-04-08T09:27:01.140Z,41.50
2023-04-08T09:29:28.758Z,40.87
2023-04-08T09:31:58.592Z,39.30
2023-04-08T09:34:26.542Z,39.73
2023-04-08T09:36:53.408Z,38.73
2023-04-08T09:39:20.463Z,37.50
2023-04-08T09:41:48.818Z,39.60
2023-04-08T09:44:16.362Z,39.67
2023-04-08T09:46:47.552Z,39.00
2023-04-08T09:49:26.075Z,39.97
2023-04-08T09:51:56.866Z,38.47
2023-04-08T09:54:25.184Z,37.57
2023-04-08T09:56:56.442Z,36.90
2023-04-08T09:59:27.194Z,37.33
2023-04-08T10:01:53.966Z,36.23
2023-04-08T10:04:21.206Z,35.50
2023-04-08T10:06:53.042Z,37.43
2023-04-08T10:09:20.494Z,36.67
2023-04-08T10:11:47.409Z,36.63
2023-04-08T10:14:13.722Z,35.60
2023-04-08T10:16:40.263Z,35.67
2023-04-08T10:19:38.723Z,35.80
2023-04-08T10:22:41.430Z,35.53
2023-04-08T10:25:29.121Z,36.47
2023-04-08T10:27:55.894Z,34.83
2023-04-08T10:30:41.816Z,34.33
2023-04-08T10:33:12.584Z,34.73
2023-04-08T10:35:42.819Z,32.83
2023-04-08T10:38:09.190Z,33.67
2023-04-08T10:40:36.870Z,32.97
2023-04-08T10:43:04.681Z,31.43
2023-04-08T10:45:31.014Z,31.33
2023-04-08T10:47:57.235Z,32.77
2023-04-08T10:50:23.506Z,33.57
2023-04-08T10:52:51.270Z,34.23
2023-04-08T10:55:22.165Z,32.27
2023-04-08T10:57:49.268Z,30.77
2023-04-08T11:00:18.670Z,31.87
2023-04-08T11:02:45.161Z,30.23
2023-04-08T11:05:11.625Z,29.17
2023-04-08T11:07:40.802Z,28.67
2023-04-08T11:10:07.972Z,28.17
2023-04-08T11:12:35.230Z,28.53
2023-04-08T11:15:01.646Z,27.80
2023-04-08T11:17:29.417Z,28.27
2023-04-08T11:19:55.855Z,28.10
2023-04-08T11:22:22.607Z,28.23
2023-04-08T11:24:49.513Z,27.53
2023-04-08T11:27:15.966Z,27.37
2023-04-08T11:29:42.520Z,27.87
2023-04-08T11:32:08.859Z,28.93
2023-04-08T11:34:38.855Z,29.57
2023-04-08T11:37:05.092Z,24.37
2023-04-08T11:39:31.310Z,10.40
2023-04-08T11:41:57.789Z,10.73
2023-04-08T11:44:30.556Z,10.20
2023-04-08T11:46:57.845Z,10.10
2023-04-08T11:49:24.179Z,10.10
2023-04-08T11:51:58.329Z,11.50
2023-04-08T11:54:28.170Z,10.40
2023-04-08T11:56:55.332Z,10.43
2023-04-08T11:59:21.532Z,9.93
2023-04-08T12:01:47.967Z,9.37
2023-04-08T12:04:14.288Z,8.73
2023-04-08T12:06:42.724Z,8.03
2023-04-08T12:09:09.548Z,7.80
2023-04-08T12:11:35.937Z,9.70
2023-04-08T12:14:02.083Z,9.63
2023-04-08T12:16:28.428Z,8.13
2023-04-08T12:18:54.692Z,9.00
2023-04-08T12:21:20.854Z,9.30
2023-04-08T12:23:46.970Z,9.23
2023-04-08T12:26:13.907Z,8.90
2023-04-08T12:28:40.437Z,7.70
2023-04-08T12:31:06.900Z,7.43
2023-04-08T12:33:33.289Z,8.03
2023-04-08T12:35:59.874Z,8.57
2023-04-08T12:38:26.711Z,9.20
2023-04-08T12:40:53.250Z,8.93
2023-04-08T12:43:20.186Z,9.27
2023-04-08T12:45:46.465Z,9.67
2023-04-08T12:48:12.627Z,8.83
2023-04-08T12:50:38.834Z,8.53
2023-04-08T12:53:05.041Z,7.43
2023-04-08T12:55:31.531Z,7.90
2023-04-08T12:57:57.752Z,7.87
2023-04-08T13:00:25.897Z,6.33
2023-04-08T13:02:52.210Z,6.43
2023-04-08T13:05:23.657Z,6.77
2023-04-08T13:07:55.874Z,6.90
2023-04-08T13:10:22.164Z,6.80
2023-04-08T13:12:48.373Z,7.37
2023-04-08T13:15:14.936Z,6.10
2023-04-08T13:17:41.847Z,5.83
2023-04-08T13:20:10.149Z,6.07
2023-04-08T13:22:36.369Z,6.23
2023-04-08T13:25:05.330Z,6.67
2023-04-08T13:27:31.712Z,5.83
2023-04-08T13:29:58.138Z,6.63
2023-04-08T13:32:24.611Z,6.77
2023-04-08T13:34:51.411Z,6.47
2023-04-08T13:37:17.635Z,6.40
2023-04-08T13:39:43.814Z,6.17
2023-04-08T13:42:10.145Z,7.60
2023-04-08T13:44:36.350Z,6.93
2023-04-08T13:47:02.543Z,7.10
2023-04-08T13:49:28.762Z,7.50
2023-04-08T13:51:55.607Z,7.80
2023-04-08T13:54:21.871Z,8.93
2023-04-08T13:56:48.142Z,9.00
2023-04-08T13:59:14.627Z,8.77
2023-04-08T14:01:41.009Z,9.73
2023-04-08T14:04:07.262Z,9.77
2023-04-08T14:06:34.020Z,10.20
2023-04-08T14:09:00.994Z,12.03
2023-04-08T14:11:27.233Z,11.33
2023-04-08T14:13:53.804Z,11.03
2023-04-08T14:16:20.499Z,12.80
2023-04-08T14:18:46.686Z,13.43
2023-04-08T14:21:14.834Z,13.20
2023-04-08T14:23:41.227Z,14.73
2023-04-08T14:26:08.170Z,13.67
2023-04-08T14:28:34.578Z,13.67
2023-04-08T14:31:03.145Z,14.00
2023-04-08T14:33:29.421Z,13.30
2023-04-08T14:35:55.709Z,13.53
2023-04-08T14:38:22.371Z,13.33
2023-04-08T14:40:48.637Z,14.10
2023-04-08T14:43:15.459Z,14.43
2023-04-08T14:45:41.809Z,13.40
2023-04-08T14:48:08.003Z,13.03
2023-04-08T14:50:34.238Z,12.70
2023-04-08T14:53:01.039Z,14.03
2023-04-08T14:55:27.776Z,14.00
2023-04-08T14:57:53.947Z,14.13
2023-04-08T15:00:20.747Z,14.50
2023-04-08T15:02:47.046Z,13.47
2023-04-08T15:05:13.259Z,13.03
2023-04-08T15:07:39.525Z,12.60
2023-04-08T15:10:07.019Z,13.17
2023-04-08T15:12:33.225Z,13.03
2023-04-08T15:14:59.554Z,14.83
2023-04-08T15:17:26.558Z,14.73
2023-04-08T15:19:52.908Z,12.97
2023-04-08T15:22:19.121Z,13.17
2023-04-08T15:24:46.308Z,12.00
2023-04-08T15:27:15.086Z,13.17
2023-04-08T15:29:41.373Z,12.30
2023-04-08T15:32:07.579Z,12.43
2023-04-08T15:34:34.392Z,12.07
2023-04-08T15:37:01.456Z,12.30
2023-04-08T15:39:27.653Z,12.53
2023-04-08T15:41:54.115Z,12.30
2023-04-08T15:44:21.581Z,12.70
2023-04-08T15:46:47.888Z,13.37
2023-04-08T15:49:14.265Z,13.43
2023-04-08T15:51:43.699Z,13.93
2023-04-08T15:54:10.380Z,13.87
2023-04-08T15:56:36.774Z,13.30
2023-04-08T15:59:02.998Z,13.47
2023-04-08T16:01:29.193Z,14.20
2023-04-08T16:03:55.899Z,13.93
2023-04-08T16:06:22.208Z,15.50
2023-04-08T16:08:49.511Z,15.73
2023-04-08T16:11:16.841Z,15.43
2023-04-08T16:13:43.012Z,16.33
2023-04-08T16:16:09.551Z,15.33
2023-04-08T16:18:35.750Z,13.83
2023-04-08T16:21:04.085Z,13.80
2023-04-08T16:23:30.345Z,14.50
2023-04-08T16:25:57.178Z,19.33
2023-04-08T16:28:23.609Z,17.93
2023-04-08T16:30:49.771Z,20.47
2023-04-08T16:33:15.954Z,21.97
2023-04-08T16:35:42.313Z,23.97
2023-04-08T16:38:08.554Z,23.67
2023-04-08T16:40:34.787Z,25.20
2023-04-08T16:43:03.238Z,25.50
2023-04-08T16:45:30.109Z,21.93
2023-04-08T16:47:56.974Z,22.00
2023-04-08T16:50:23.410Z,21.70
2023-04-08T16:52:49.729Z,21.07
2023-04-08T16:55:16.419Z,20.53
2023-04-08T16:57:42.676Z,19.57
2023-04-08T17:00:10.494Z,18.33
2023-04-08T17:02:36.790Z,16.80
2023-04-08T17:05:03.407Z,15.53
2023-04-08T17:07:30.337Z,15.00
2023-04-08T17:09:56.898Z,15.23
2023-04-08T17:12:23.225Z,14.47
2023-04-08T17:14:49.662Z,14.03
2023-04-08T17:17:16.569Z,12.93
2023-04-08T17:19:43.378Z,12.77
2023-04-08T17:22:09.610Z,12.63
2023-04-08T17:24:35.872Z,12.33
2023-04-08T17:27:02.110Z,14.23
2023-04-08T17:29:28.306Z,14.37
2023-04-08T17:31:54.645Z,13.63
2023-04-08T17:34:21.914Z,13.17
2023-04-08T17:36:48.135Z,13.60
2023-04-08T17:39:15.570Z,13.93
2023-04-08T17:41:43.980Z,13.50
2023-04-08T17:44:11.565Z,13.20
2023-04-08T17:46:37.805Z,13.63
2023-04-08T17:49:04.008Z,12.03
2023-04-08T17:51:31.236Z,13.10
2023-04-08T17:53:57.550Z,14.10
2023-04-08T17:56:23.888Z,15.30
2023-04-08T17:58:50.163Z,14.80
2023-04-08T18:01:16.534Z,13.93
2023-04-08T18:03:42.907Z,15.80
2023-04-08T18:06:09.079Z,18.70
2023-04-08T18:08:35.998Z,16.87
2023-04-08T18:11:04.140Z,15.80
2023-04-08T18:13:30.450Z,16.83
2023-04-08T18:15:56.632Z,15.80
2023-04-08T18:18:24.164Z,16.63
2023-04-08T18:20:50.356Z,16.77
2023-04-08T18:23:16.718Z,17.57
2023-04-08T18:25:45.925Z,16.70
2023-04-08T18:28:12.191Z,17.87
2023-04-08T18:30:38.404Z,17.47
2023-04-08T18:33:04.588Z,18.00
2023-04-08T18:35:30.785Z,18.20
2023-04-08T18:37:57.115Z,19.00
2023-04-08T18:40:24.659Z,20.30
2023-04-08T18:42:51.703Z,18.80
2023-04-08T18:45:18.084Z,18.80
2023-04-08T18:47:44.339Z,19.10
2023-04-08T18:50:10.607Z,20.73
2023-04-08T18:52:38.111Z,20.00
2023-04-08T18:55:05.027Z,21.97
2023-04-08T18:57:31.404Z,20.90
2023-04-08T18:59:58.196Z,20.77
2023-04-08T19:02:24.770Z,20.80
2023-04-08T19:04:51.284Z,21.30
2023-04-08T19:07:17.562Z,21.73
2023-04-08T19:09:43.852Z,21.90
2023-04-08T19:12:10.122Z,21.47
2023-04-08T19:14:36.689Z,20.77
2023-04-08T19:17:03.499Z,21.07
2023-04-08T19:19:29.692Z,20.63
2023-04-08T19:21:56.207Z,21.27
2023-04-08T19:24:22.537Z,20.00
2023-04-08T19:26:50.068Z,20.30
2023-04-08T19:29:18.700Z,20.77
2023-04-08T19:31:45.037Z,20.93
2023-04-08T19:34:11.972Z,21.80
2023-04-08T19:36:38.165Z,21.00
2023-04-08T19:39:05.033Z,20.57
2023-04-08T19:41:31.236Z,20.17
2023-04-08T19:43:57.444Z,20.67
2023-04-08T19:46:23.735Z,20.47
2023-04-08T19:48:49.895Z,21.73
2023-04-08T19:51:19.444Z,22.80
2023-04-08T19:53:46.065Z,22.27
2023-04-08T19:56:12.816Z,21.90
2023-04-08T19:58:41.185Z,22.53
2023-04-08T20:01:09.109Z,21.70
2023-04-08T20:03:35.658Z,21.67
2023-04-08T20:06:02.109Z,21.93
2023-04-08T20:08:28.959Z,21.33
2023-04-08T20:10:55.188Z,21.73
2023-04-08T20:13:21.479Z,22.33
2023-04-08T20:15:47.700Z,23.43
2023-04-08T20:18:15.606Z,24.50
2023-04-08T20:20:42.195Z,23.70
2023-04-08T20:23:10.346Z,24.03
2023-04-08T20:25:37.814Z,23.37
2023-04-08T20:28:04.048Z,23.90
2023-04-08T20:30:30.492Z,23.40
2023-04-08T20:32:58.015Z,21.90
2023-04-08T20:35:24.241Z,23.07
2023-04-08T20:37:50.481Z,21.90
2023-04-08T20:40:18.363Z,23.33
2023-04-08T20:42:45.336Z,22.27
2023-04-08T20:45:11.482Z,21.67
2023-04-08T20:47:37.880Z,21.90
2023-04-08T20:50:04.860Z,22.30
2023-04-08T20:52:31.139Z,22.40
2023-04-08T20:54:57.476Z,22.13
2023-04-08T20:57:23.725Z,21.97
2023-04-08T20:59:50.601Z,23.33
2023-04-08T21:02:19.943Z,22.10
2023-04-08T21:04:46.239Z,24.17
2023-04-08T21:07:12.422Z,27.00
2023-04-08T21:09:38.874Z,28.23
2023-04-08T21:12:05.302Z,27.87
2023-04-08T21:14:31.492Z,25.80
2023-04-08T21:16:58.327Z,26.20
2023-04-08T21:19:24.575Z,26.67
2023-04-08T21:21:50.828Z,26.43
2023-04-08T21:24:17.039Z,25.70
2023-04-08T21:26:43.273Z,26.27
2023-04-08T21:29:10.671Z,26.20
2023-04-08T21:31:37.310Z,27.67
2023-04-08T21:34:05.245Z,29.03
2023-04-08T21:36:31.428Z,29.40
2023-04-08T21:38:57.570Z,28.93
2023-04-08T21:41:23.772Z,28.77
2023-04-08T21:43:50.108Z,28.33
2023-04-08T21:46:16.605Z,28.10
2023-04-08T21:48:42.860Z,28.30
2023-04-08T21:51:14.623Z,31.10
2023-04-08T21:53:40.801Z,27.50
2023-04-08T21:56:07.273Z,26.93
2023-04-08T21:58:34.230Z,29.63
2023-04-08T22:01:00.662Z,28.77
2023-04-08T22:03:26.996Z,28.93
2023-04-08T22:05:53.248Z,29.03
2023-04-08T22:08:20.932Z,30.87
2023-04-08T22:10:47.067Z,29.53
2023-04-08T22:13:13.530Z,32.40
2023-04-08T22:15:39.944Z,31.17
2023-04-08T22:18:06.259Z,30.87
2023-04-08T22:20:32.430Z,32.83
2023-04-08T22:22:58.709Z,31.07
2023-04-08T22:25:25.563Z,30.77
2023-04-08T22:27:51.796Z,30.27
2023-04-08T22:30:18.003Z,28.63
2023-04-08T22:32:44.254Z,28.37
2023-04-08T22:35:10.836Z,28.33
2023-04-08T22:37:37.020Z,28.23
2023-04-08T22:40:03.898Z,28.33
2023-04-08T22:42:30.739Z,28.23
2023-04-08T22:44:56.966Z,28.97
2023-04-08T22:47:23.250Z,27.53
2023-04-08T22:49:49.642Z,28.43
2023-04-08T22:52:15.841Z,28.97
2023-04-08T22:54:42.024Z,29.63
2023-04-08T22:57:08.193Z,28.70
2023-04-08T22:59:35.068Z,29.50
2023-04-08T23:02:01.677Z,30.00
2023-04-08T23:04:28.054Z,28.30
2023-04-08T23:06:54.635Z,29.93
2023-04-08T23:09:22.852Z,29.70
2023-04-08T23:11:49.101Z,29.70
2023-04-08T23:14:15.301Z,30.60
2023-04-08T23:16:42.176Z,31.70
2023-04-08T23:19:08.360Z,31.97
2023-04-08T23:21:34.667Z,30.07
2023-04-08T23:24:00.832Z,31.77
2023-04-08T23:26:27.116Z,30.27
2023-04-08T23:28:53.653Z,30.00
2023-04-08T23:31:20.128Z,30.33
2023-04-08T23:33:46.991Z,30.20
2023-04-08T23:36:13.476Z,30.83
2023-04-08T23:38:39.815Z,29.43
2023-04-08T23:41:06.985Z,28.70
2023-04-08T23:43:33.745Z,29.23
2023-04-08T23:45:59.891Z,29.43
2023-04-08T23:48:26.057Z,29.23
2023-04-08T23:50:53.522Z,29.07
2023-04-08T23:53:19.917Z,29.80
2023-04-08T23:55:46.129Z,28.70
2023-04-08T23:58:12.652Z,28.37
